createdAt,value
2019-03-24T00:02:08.985Z,15.90
2019-03-24T00:04:41.889Z,19.83
2019-03-24T00:07:14.345Z,21.87
2019-03-24T00:09:46.952Z,20.93
2019-03-24T00:12:20.197Z,16.47
2019-03-24T00:14:53.188Z,17.00
2019-03-24T00:17:25.275Z,21.37
2019-03-24T00:19:58.372Z,22.03
2019-03-24T00:22:30.137Z,17.53
2019-03-24T00:25:02.931Z,18.53
2019-03-24T00:27:35.938Z,15.60
2019-03-24T00:30:09.455Z,18.80
2019-03-24T00:32:41.886Z,19.63
2019-03-24T00:35:13.952Z,20.87
2019-03-24T00:37:46.236Z,19.03
2019-03-24T00:40:19.020Z,21.10
2019-03-24T00:42:51.744Z,23.20
2019-03-24T00:45:23.677Z,16.33
2019-03-24T00:47:55.597Z,20.80
2019-03-24T00:50:28.317Z,20.30
2019-03-24T00:53:00.325Z,17.07
2019-03-24T00:55:33.959Z,13.73
2019-03-24T00:58:05.793Z,21.60
2019-03-24T01:00:48.795Z,25.33
2019-03-24T01:03:20.838Z,13.20
2019-03-24T01:05:53.186Z,15.37
2019-03-24T01:08:25.591Z,17.20
2019-03-24T01:10:58.341Z,14.53
2019-03-24T01:13:31.351Z,10.20
2019-03-24T01:16:04.955Z,20.27
2019-03-24T01:18:38.524Z,18.70
2019-03-24T01:21:11.332Z,15.63
2019-03-24T01:23:43.324Z,21.97
2019-03-24T01:26:16.135Z,14.23
2019-03-24T01:28:48.263Z,14.03
2019-03-24T01:31:21.291Z,18.63
2019-03-24T01:33:54.810Z,11.73
2019-03-24T01:36:27.043Z,16.37
2019-03-24T01:39:00.665Z,17.67
2019-03-24T01:41:32.793Z,12.77
2019-03-24T01:44:05.041Z,14.77
2019-03-24T01:46:37.660Z,13.23
2019-03-24T01:49:09.905Z,16.70
2019-03-24T01:51:42.115Z,16.70
2019-03-24T01:54:15.715Z,13.47
2019-03-24T01:56:49.250Z,18.47
2019-03-24T01:59:21.161Z,21.93
2019-03-24T02:01:54.729Z,18.63
2019-03-24T02:04:28.269Z,21.13
2019-03-24T02:07:00.337Z,15.73
2019-03-24T02:09:33.954Z,11.27
2019-03-24T02:12:07.575Z,15.47
2019-03-24T02:14:39.567Z,15.30
2019-03-24T02:17:11.517Z,14.97
2019-03-24T02:19:44.235Z,16.80
2019-03-24T02:22:17.809Z,15.63
2019-03-24T02:24:50.485Z,13.83
2019-03-24T02:27:23.019Z,16.70
2019-03-24T02:29:55.004Z,16.73
2019-03-24T02:32:28.569Z,21.07
2019-03-24T02:35:02.140Z,16.70
2019-03-24T02:37:35.154Z,12.60
2019-03-24T02:40:08.949Z,19.87
2019-03-24T02:42:42.505Z,18.73
2019-03-24T02:45:15.428Z,23.23
2019-03-24T02:47:48.120Z,13.07
2019-03-24T02:50:20.039Z,17.37
2019-03-24T02:52:53.568Z,12.53
2019-03-24T02:55:25.994Z,13.93
2019-03-24T02:57:59.235Z,19.97
2019-03-24T03:00:31.682Z,17.53
2019-03-24T03:03:03.665Z,21.00
2019-03-24T03:05:37.195Z,13.83
2019-03-24T03:08:10.781Z,15.70
2019-03-24T03:10:44.228Z,20.00
2019-03-24T03:13:17.861Z,16.83
2019-03-24T03:15:50.975Z,12.77
2019-03-24T03:18:24.187Z,17.27
2019-03-24T03:20:56.251Z,13.47
2019-03-24T03:23:30.052Z,16.77
2019-03-24T03:26:02.803Z,19.53
2019-03-24T03:28:36.422Z,17.00
2019-03-24T03:31:08.700Z,14.30
2019-03-24T03:33:40.730Z,16.40
2019-03-24T03:36:14.392Z,13.67
2019-03-24T03:38:47.861Z,18.37
2019-03-24T03:41:20.635Z,15.53
2019-03-24T03:43:53.150Z,14.57
2019-03-24T03:46:25.401Z,16.00
2019-03-24T03:48:57.469Z,17.47
2019-03-24T03:51:29.734Z,14.10
2019-03-24T03:54:02.145Z,16.37
2019-03-24T03:56:34.901Z,15.70
2019-03-24T03:59:07.617Z,19.90
2019-03-24T04:01:39.457Z,15.70
2019-03-24T04:04:12.152Z,13.70
2019-03-24T04:06:45.860Z,15.77
2019-03-24T04:09:19.522Z,16.60
2019-03-24T04:11:51.388Z,20.23
2019-03-24T04:14:23.821Z,18.17
2019-03-24T04:17:06.170Z,20.43
2019-03-24T04:19:30.316Z,24.60
2019-03-24T04:22:03.903Z,16.07
2019-03-24T04:24:35.699Z,19.90
2019-03-24T04:27:07.851Z,14.83
2019-03-24T04:29:41.338Z,23.10
2019-03-24T04:32:13.987Z,18.87
2019-03-24T04:34:45.953Z,17.33
2019-03-24T04:37:18.530Z,15.57
2019-03-24T04:39:52.259Z,19.80
2019-03-24T04:42:24.781Z,19.43
2019-03-24T04:44:57.087Z,13.47
2019-03-24T04:47:29.869Z,13.93
2019-03-24T04:50:01.679Z,20.30
2019-03-24T04:52:33.507Z,20.07
2019-03-24T04:55:05.827Z,19.67
2019-03-24T04:57:39.409Z,21.13
2019-03-24T05:00:12.446Z,25.40
2019-03-24T05:02:46.048Z,16.27
2019-03-24T05:05:19.112Z,16.23
2019-03-24T05:07:51.544Z,20.20
2019-03-24T05:10:28.144Z,17.33
2019-03-24T05:13:01.763Z,20.50
2019-03-24T05:15:33.589Z,20.13
2019-03-24T05:18:05.452Z,20.30
2019-03-24T05:20:39.021Z,20.20
2019-03-24T05:23:11.253Z,22.93
2019-03-24T05:25:44.494Z,25.03
2019-03-24T05:28:16.959Z,23.47
2019-03-24T05:30:49.010Z,18.10
2019-03-24T05:33:21.392Z,21.03
2019-03-24T05:35:54.964Z,20.77
2019-03-24T05:38:26.770Z,23.50
2019-03-24T05:41:00.283Z,25.67
2019-03-24T05:43:32.458Z,18.30
2019-03-24T05:46:05.717Z,25.30
2019-03-24T05:48:38.939Z,21.17
2019-03-24T05:51:11.459Z,25.80
2019-03-24T05:53:45.017Z,23.47
2019-03-24T05:56:16.827Z,19.60
2019-03-24T05:58:49.345Z,20.90
2019-03-24T06:01:21.586Z,23.13
2019-03-24T06:03:53.565Z,23.13
2019-03-24T06:06:25.544Z,17.67
2019-03-24T06:08:58.505Z,19.93
2019-03-24T06:11:30.627Z,22.00
2019-03-24T06:14:03.402Z,23.90
2019-03-24T06:16:35.269Z,22.67
2019-03-24T06:19:08.828Z,21.47
2019-03-24T06:21:41.797Z,22.53
2019-03-24T06:24:14.188Z,23.60
2019-03-24T06:26:47.747Z,22.80
2019-03-24T06:29:21.252Z,19.40
2019-03-24T06:31:53.867Z,17.53
2019-03-24T06:34:25.836Z,29.40
2019-03-24T06:37:01.039Z,14.50
2019-03-24T06:39:33.189Z,19.00
2019-03-24T06:42:06.416Z,21.10
2019-03-24T06:44:38.244Z,16.13
2019-03-24T06:47:10.593Z,21.30
2019-03-24T06:49:44.009Z,18.23
2019-03-24T06:52:18.113Z,14.93
2019-03-24T06:54:50.182Z,23.33
2019-03-24T06:57:22.495Z,22.63
2019-03-24T06:59:54.870Z,27.83
2019-03-24T07:02:28.516Z,18.67
2019-03-24T07:05:02.137Z,23.37
2019-03-24T07:07:36.535Z,22.67
2019-03-24T07:10:09.440Z,22.37
2019-03-24T07:12:43.257Z,21.00
2019-03-24T07:15:15.275Z,23.43
2019-03-24T07:17:47.120Z,24.00
2019-03-24T07:20:19.445Z,25.13
2019-03-24T07:22:53.209Z,17.47
2019-03-24T07:25:25.415Z,26.50
2019-03-24T07:27:59.105Z,39.03
2019-03-24T07:30:31.302Z,43.00
2019-03-24T07:33:03.712Z,36.47
2019-03-24T07:35:35.576Z,27.80
2019-03-24T07:38:08.680Z,35.13
2019-03-24T07:40:40.576Z,40.57
2019-03-24T07:43:14.136Z,25.87
2019-03-24T07:45:48.556Z,31.73
2019-03-24T07:48:21.012Z,22.13
2019-03-24T07:50:53.645Z,20.40
2019-03-24T07:53:27.138Z,23.80
2019-03-24T07:56:00.697Z,18.57
2019-03-24T07:58:33.451Z,27.53
2019-03-24T08:01:05.534Z,20.53
2019-03-24T08:03:37.714Z,23.93
2019-03-24T08:06:10.803Z,29.33
2019-03-24T08:08:44.360Z,19.60
2019-03-24T08:11:16.838Z,27.73
2019-03-24T08:13:53.653Z,27.17
2019-03-24T08:16:22.338Z,30.33
2019-03-24T08:18:54.256Z,50.13
2019-03-24T08:21:26.222Z,27.60
2019-03-24T08:23:59.120Z,24.17
2019-03-24T08:26:30.982Z,21.50
2019-03-24T08:29:04.529Z,23.43
2019-03-24T08:31:37.201Z,16.07
2019-03-24T08:34:10.471Z,21.20
2019-03-24T08:36:43.583Z,21.30
2019-03-24T08:39:15.317Z,23.67
2019-03-24T08:41:48.877Z,21.13
2019-03-24T08:44:22.431Z,22.63
2019-03-24T08:46:54.619Z,20.13
2019-03-24T08:49:27.094Z,21.90
2019-03-24T08:52:00.442Z,23.10
2019-03-24T08:54:33.189Z,17.87
2019-03-24T08:57:06.175Z,21.67
2019-03-24T08:59:37.944Z,23.40
2019-03-24T09:02:10.022Z,19.30
2019-03-24T09:04:42.395Z,21.63
2019-03-24T09:07:14.457Z,35.60
2019-03-24T09:09:46.287Z,26.63
2019-03-24T09:12:18.199Z,19.70
2019-03-24T09:14:51.807Z,25.30
2019-03-24T09:17:24.285Z,17.27
2019-03-24T09:19:56.909Z,17.63
2019-03-24T09:22:28.909Z,24.83
2019-03-24T09:25:01.039Z,16.50
2019-03-24T09:27:32.955Z,19.00
2019-03-24T09:30:07.240Z,18.83
2019-03-24T09:32:39.136Z,18.53
2019-03-24T09:35:11.322Z,16.80
2019-03-24T09:37:44.969Z,20.00
2019-03-24T09:40:22.720Z,16.80
2019-03-24T09:42:56.318Z,23.57
2019-03-24T09:45:28.428Z,19.30
2019-03-24T09:48:02.434Z,17.53
2019-03-24T09:50:34.628Z,17.57
2019-03-24T09:53:07.489Z,13.23
2019-03-24T09:55:39.360Z,22.70
2019-03-24T09:58:11.305Z,14.17
2019-03-24T10:00:44.156Z,29.43
2019-03-24T10:03:17.668Z,21.30
2019-03-24T10:05:50.646Z,22.33
2019-03-24T10:08:22.554Z,19.43
2019-03-24T10:10:54.445Z,21.67
2019-03-24T10:13:26.496Z,25.27
2019-03-24T10:15:58.676Z,23.00
2019-03-24T10:18:32.347Z,29.40
2019-03-24T10:21:04.540Z,21.27
2019-03-24T10:23:36.693Z,20.30
2019-03-24T10:26:08.711Z,16.20
2019-03-24T10:28:41.896Z,22.03
2019-03-24T10:31:14.260Z,16.30
2019-03-24T10:33:47.556Z,20.27
2019-03-24T10:36:20.460Z,23.60
2019-03-24T10:38:52.313Z,25.57
2019-03-24T10:41:25.378Z,15.60
2019-03-24T10:43:58.021Z,15.87
2019-03-24T10:46:30.372Z,19.50
2019-03-24T10:49:02.286Z,26.47
2019-03-24T10:51:34.774Z,17.07
2019-03-24T10:54:07.714Z,15.30
2019-03-24T10:56:39.972Z,15.93
2019-03-24T10:59:12.838Z,21.73
2019-03-24T11:01:46.404Z,13.00
2019-03-24T11:04:20.906Z,14.93
2019-03-24T11:06:53.297Z,16.67
2019-03-24T11:09:25.390Z,12.10
2019-03-24T11:11:59.097Z,18.00
2019-03-24T11:14:32.497Z,18.87
2019-03-24T11:17:05.460Z,14.67
2019-03-24T11:19:39.926Z,18.90
2019-03-24T11:22:12.266Z,15.60
2019-03-24T11:24:46.151Z,15.70
2019-03-24T11:27:18.424Z,15.07
2019-03-24T11:29:51.896Z,12.90
2019-03-24T11:32:24.200Z,9.97
2019-03-24T11:34:56.342Z,15.00
2019-03-24T11:37:28.624Z,15.60
2019-03-24T11:40:00.794Z,14.23
2019-03-24T11:42:32.954Z,17.43
2019-03-24T11:45:06.516Z,12.60
2019-03-24T11:47:39.542Z,12.50
2019-03-24T11:50:13.723Z,17.13
2019-03-24T11:52:47.328Z,11.60
2019-03-24T11:55:19.796Z,13.00
2019-03-24T11:57:51.828Z,14.47
2019-03-24T12:00:34.101Z,12.47
2019-03-24T12:03:07.880Z,12.93
2019-03-24T12:05:41.572Z,9.03
2019-03-24T12:08:15.180Z,7.90
2019-03-24T12:10:47.452Z,11.93
2019-03-24T12:13:20.966Z,15.53
2019-03-24T12:15:54.505Z,16.03
2019-03-24T12:18:26.424Z,13.23
2019-03-24T12:21:00.673Z,14.90
2019-03-24T12:23:34.763Z,19.93
2019-03-24T12:26:08.261Z,14.17
2019-03-24T12:28:40.130Z,17.60
2019-03-24T12:31:12.246Z,13.33
2019-03-24T12:33:46.003Z,16.60
2019-03-24T12:36:21.927Z,15.70
2019-03-24T12:38:54.817Z,15.90
2019-03-24T12:41:28.283Z,14.47
2019-03-24T12:44:00.323Z,14.73
2019-03-24T12:46:33.098Z,15.03
2019-03-24T12:49:05.464Z,17.13
2019-03-24T12:51:37.365Z,16.87
2019-03-24T12:54:09.743Z,17.47
2019-03-24T12:56:43.416Z,12.70
2019-03-24T12:59:17.847Z,16.03
2019-03-24T13:01:50.171Z,20.20
2019-03-24T13:04:23.420Z,14.53
2019-03-24T13:06:55.599Z,14.70
2019-03-24T13:09:28.086Z,12.27
2019-03-24T13:12:02.986Z,16.00
2019-03-24T13:14:36.549Z,17.67
2019-03-24T13:17:08.769Z,18.37
2019-03-24T13:19:41.400Z,17.77
2019-03-24T13:22:14.404Z,14.23
2019-03-24T13:24:46.429Z,13.90
2019-03-24T13:27:19.985Z,15.67
2019-03-24T13:29:53.384Z,18.07
2019-03-24T13:32:25.850Z,13.27
2019-03-24T13:34:59.693Z,16.00
2019-03-24T13:37:32.030Z,19.43
2019-03-24T13:40:05.474Z,14.47
2019-03-24T13:42:39.026Z,12.93
2019-03-24T13:45:12.425Z,17.63
2019-03-24T13:47:45.263Z,18.57
2019-03-24T13:50:17.908Z,19.40
2019-03-24T13:52:50.353Z,14.00
2019-03-24T13:55:22.647Z,14.40
2019-03-24T13:57:54.468Z,15.43
2019-03-24T14:00:26.570Z,14.90
2019-03-24T14:02:58.425Z,18.10
2019-03-24T14:05:30.355Z,18.47
2019-03-24T14:08:02.510Z,11.13
2019-03-24T14:10:35.563Z,19.03
2019-03-24T14:13:07.518Z,12.63
2019-03-24T14:15:40.838Z,12.03
2019-03-24T14:18:13.704Z,10.83
2019-03-24T14:20:47.378Z,13.00
2019-03-24T14:23:20.910Z,12.40
2019-03-24T14:25:54.534Z,13.80
2019-03-24T14:28:26.806Z,15.87
2019-03-24T14:31:00.801Z,11.97
2019-03-24T14:33:32.854Z,13.97
2019-03-24T14:36:06.554Z,12.80
2019-03-24T14:38:38.859Z,15.40
2019-03-24T14:41:10.754Z,17.87
2019-03-24T14:43:44.116Z,16.17
2019-03-24T14:46:18.599Z,9.20
2019-03-24T14:48:51.336Z,12.10
2019-03-24T14:51:25.192Z,16.87
2019-03-24T14:54:00.018Z,13.17
2019-03-24T14:56:34.075Z,19.23
2019-03-24T14:59:06.102Z,16.20
2019-03-24T15:01:39.832Z,11.00
2019-03-24T15:04:13.788Z,14.47
2019-03-24T15:06:46.290Z,14.77
2019-03-24T15:09:19.904Z,17.27
2019-03-24T15:11:53.914Z,13.33
2019-03-24T15:14:26.487Z,14.90
2019-03-24T15:17:00.352Z,15.13
2019-03-24T15:19:34.053Z,15.83
2019-03-24T15:22:06.727Z,15.53
2019-03-24T15:24:40.425Z,14.00
2019-03-24T15:27:13.938Z,14.37
2019-03-24T15:29:47.557Z,19.50
2019-03-24T15:32:20.341Z,15.67
2019-03-24T15:34:55.015Z,14.97
2019-03-24T15:37:27.644Z,20.77
2019-03-24T15:40:01.959Z,11.93
2019-03-24T15:42:35.899Z,12.43
2019-03-24T15:45:09.769Z,20.53
2019-03-24T15:47:42.782Z,10.87
2019-03-24T15:50:15.746Z,13.43
2019-03-24T15:52:48.578Z,12.13
2019-03-24T15:55:22.104Z,14.20
2019-03-24T15:57:55.715Z,17.97
2019-03-24T16:00:43.215Z,13.53
2019-03-24T16:03:16.756Z,11.33
2019-03-24T16:05:50.991Z,14.07
2019-03-24T16:08:25.046Z,11.97
2019-03-24T16:10:58.868Z,15.07
2019-03-24T16:13:32.561Z,11.00
2019-03-24T16:16:05.921Z,13.87
2019-03-24T16:18:38.758Z,11.63
2019-03-24T16:21:10.816Z,13.47
2019-03-24T16:23:44.443Z,11.33
2019-03-24T16:26:17.987Z,16.80
2019-03-24T16:28:50.435Z,15.70
2019-03-24T16:31:25.294Z,15.63
2019-03-24T16:33:58.129Z,12.67
2019-03-24T16:36:31.703Z,15.77
2019-03-24T16:39:06.929Z,21.03
2019-03-24T16:41:41.233Z,18.10
2019-03-24T16:44:15.881Z,16.10
2019-03-24T16:46:48.990Z,16.93
2019-03-24T16:49:21.038Z,20.73
2019-03-24T16:51:53.361Z,19.17
2019-03-24T16:54:26.986Z,18.20
2019-03-24T16:56:59.271Z,19.23
2019-03-24T16:59:32.030Z,20.23
2019-03-24T17:02:04.590Z,19.60
2019-03-24T17:04:37.933Z,19.13
2019-03-24T17:07:10.968Z,33.37
2019-03-24T17:09:44.312Z,32.80
2019-03-24T17:12:18.273Z,48.03
2019-03-24T17:14:51.855Z,31.57
2019-03-24T17:17:24.320Z,28.43
2019-03-24T17:19:56.565Z,23.87
2019-03-24T17:22:30.206Z,36.83
2019-03-24T17:25:04.011Z,27.13
2019-03-24T17:27:38.689Z,30.93
2019-03-24T17:30:13.127Z,24.07
2019-03-24T17:32:45.530Z,24.63
2019-03-24T17:35:17.545Z,19.60
2019-03-24T17:37:51.235Z,22.33
2019-03-24T17:40:23.943Z,23.93
2019-03-24T17:43:00.175Z,22.87
2019-03-24T17:45:33.933Z,29.60
2019-03-24T17:48:06.946Z,29.43
2019-03-24T17:50:40.574Z,28.90
2019-03-24T17:53:14.226Z,23.60
2019-03-24T17:55:47.887Z,30.20
2019-03-24T17:58:21.499Z,29.53
2019-03-24T18:00:55.445Z,27.03
2019-03-24T18:03:29.016Z,26.57
2019-03-24T18:06:01.439Z,27.83
2019-03-24T18:08:35.118Z,29.47
2019-03-24T18:11:07.444Z,27.17
2019-03-24T18:13:39.765Z,25.73
2019-03-24T18:16:13.877Z,25.00
2019-03-24T18:18:47.733Z,23.27
2019-03-24T18:21:20.076Z,24.03
2019-03-24T18:23:53.682Z,21.63
2019-03-24T18:26:27.523Z,24.43
2019-03-24T18:29:00.461Z,19.97
2019-03-24T18:31:33.864Z,20.13
2019-03-24T18:34:07.317Z,19.17
2019-03-24T18:36:40.363Z,23.27
2019-03-24T18:39:12.699Z,23.37
2019-03-24T18:41:45.090Z,21.87
2019-03-24T18:44:18.581Z,23.80
2019-03-24T18:46:51.573Z,29.13
2019-03-24T18:49:25.687Z,25.80
2019-03-24T18:52:01.262Z,31.40
2019-03-24T18:54:34.941Z,23.57
2019-03-24T18:57:07.428Z,27.90
2019-03-24T18:59:41.121Z,25.63
2019-03-24T19:02:14.190Z,24.20
2019-03-24T19:04:47.550Z,28.70
2019-03-24T19:07:19.690Z,35.70
2019-03-24T19:09:51.652Z,29.40
2019-03-24T19:12:24.671Z,22.87
2019-03-24T19:14:58.983Z,28.17
2019-03-24T19:17:31.770Z,23.83
2019-03-24T19:20:05.074Z,34.23
2019-03-24T19:22:37.058Z,34.70
2019-03-24T19:25:11.221Z,26.40
2019-03-24T19:27:46.051Z,27.23
2019-03-24T19:30:21.208Z,35.33
2019-03-24T19:32:53.273Z,29.37
2019-03-24T19:35:26.948Z,31.13
2019-03-24T19:38:01.210Z,26.03
2019-03-24T19:40:33.997Z,28.77
2019-03-24T19:43:07.151Z,27.33
2019-03-24T19:45:40.545Z,26.63
2019-03-24T19:48:13.459Z,28.93
2019-03-24T19:50:46.457Z,30.90
2019-03-24T19:53:21.231Z,35.20
2019-03-24T19:55:54.897Z,21.17
2019-03-24T19:58:28.485Z,28.43
2019-03-24T20:01:00.382Z,29.70
2019-03-24T20:03:35.140Z,25.17
2019-03-24T20:06:09.100Z,32.93
2019-03-24T20:08:41.504Z,33.30
2019-03-24T20:11:13.723Z,29.77
2019-03-24T20:13:47.399Z,35.60
2019-03-24T20:16:19.316Z,32.43
2019-03-24T20:18:51.243Z,30.30
2019-03-24T20:21:24.267Z,32.47
2019-03-24T20:23:57.178Z,23.83
2019-03-24T20:26:30.114Z,27.37
2019-03-24T20:29:02.502Z,30.97
2019-03-24T20:31:36.227Z,29.13
2019-03-24T20:34:08.832Z,27.23
2019-03-24T20:36:41.479Z,33.73
2019-03-24T20:39:15.347Z,35.93
2019-03-24T20:41:47.861Z,34.80
2019-03-24T20:44:20.967Z,26.60
2019-03-24T20:46:54.229Z,37.50
2019-03-24T20:49:26.247Z,30.37
2019-03-24T20:51:58.944Z,29.57
2019-03-24T20:54:31.047Z,31.00
2019-03-24T20:57:06.172Z,30.77
2019-03-24T20:59:39.781Z,28.10
2019-03-24T21:02:11.640Z,26.33
2019-03-24T21:04:45.327Z,24.00
2019-03-24T21:07:18.859Z,26.60
2019-03-24T21:09:52.431Z,39.93
2019-03-24T21:12:26.026Z,35.20
2019-03-24T21:14:59.742Z,34.97
2019-03-24T21:17:33.462Z,24.00
2019-03-24T21:20:07.860Z,26.37
2019-03-24T21:22:40.848Z,29.03
2019-03-24T21:25:13.940Z,24.70
2019-03-24T21:27:47.023Z,27.73
2019-03-24T21:30:31.133Z,26.13
2019-03-24T21:33:04.713Z,24.03
2019-03-24T21:35:38.363Z,27.37
2019-03-24T21:38:11.854Z,24.87
2019-03-24T21:40:45.739Z,25.93
2019-03-24T21:43:17.729Z,27.27
2019-03-24T21:45:51.320Z,30.60
2019-03-24T21:48:24.916Z,26.13
2019-03-24T21:50:58.421Z,33.10
2019-03-24T21:53:40.264Z,33.97
2019-03-24T21:56:06.658Z,28.53
2019-03-24T21:58:41.232Z,26.00
2019-03-24T22:01:13.184Z,20.27
2019-03-24T22:03:47.008Z,22.17
2019-03-24T22:06:19.360Z,24.77
2019-03-24T22:08:52.602Z,23.00
2019-03-24T22:11:26.024Z,23.00
2019-03-24T22:13:59.599Z,26.37
2019-03-24T22:16:31.547Z,23.47
2019-03-24T22:19:04.729Z,26.17
2019-03-24T22:21:36.904Z,31.80
2019-03-24T22:24:09.861Z,31.70
2019-03-24T22:26:44.656Z,25.93
2019-03-24T22:29:18.203Z,32.13
2019-03-24T22:31:51.208Z,28.37
2019-03-24T22:34:24.196Z,25.93
2019-03-24T22:36:57.319Z,23.07
2019-03-24T22:39:29.674Z,30.73
2019-03-24T22:42:01.767Z,23.40
2019-03-24T22:44:35.304Z,27.80
2019-03-24T22:47:07.393Z,22.93
2019-03-24T22:49:40.353Z,26.40
2019-03-24T22:52:14.013Z,28.77
2019-03-24T22:54:47.688Z,27.80
2019-03-24T22:57:21.200Z,26.93
2019-03-24T22:59:55.099Z,23.40
2019-03-24T23:02:29.728Z,24.80
2019-03-24T23:05:03.506Z,36.53
2019-03-24T23:07:37.356Z,26.43
2019-03-24T23:10:11.094Z,29.83
2019-03-24T23:12:44.726Z,25.87
2019-03-24T23:15:16.726Z,24.57
2019-03-24T23:17:50.402Z,22.77
2019-03-24T23:20:22.526Z,23.83
2019-03-24T23:22:56.575Z,30.10
2019-03-24T23:25:30.145Z,26.00
2019-03-24T23:28:03.666Z,24.40
2019-03-24T23:30:37.357Z,21.97
2019-03-24T23:33:09.499Z,23.30
2019-03-24T23:35:43.318Z,26.67
2019-03-24T23:38:15.282Z,28.43
2019-03-24T23:40:47.332Z,29.67
2019-03-24T23:43:19.264Z,30.90
2019-03-24T23:45:52.830Z,32.80
2019-03-24T23:48:26.416Z,23.73
2019-03-24T23:51:00.811Z,22.20
2019-03-24T23:53:34.499Z,23.20
2019-03-24T23:56:06.577Z,21.70
2019-03-24T23:58:41.266Z,27.50
